Time;durP1;ratioP1;P1;durP2;ratioP2;P2;SDS_P1;SDS_P2;PMS_P1;PMS_P2;Temp;Humidity;BMP_temperature;BMP_pressure;BME280_temperature;BME280_humidity;BME280_pressure;Samples;Min_cycle;Max_cycle;Signal;HPM_P1;HPM_P2
2022/06/28 00:01:04;;;;;;;;;;;;;;;13.13;94.47;99860.81;10435400;22;19919;-78
2022/06/28 00:05:05;;;;;;;;;;;;;;;13.01;93.94;99860.00;10433346;22;19919;-78
2022/06/28 00:09:07;;;;;;;;;;;;;;;13.01;94.87;99859.13;10432774;22;19930;-79
2022/06/28 00:13:08;;;;;;;;;;;;;;;13.06;94.78;99849.53;10432585;22;20719;-79
2022/06/28 00:17:10;;;;;;;;;;;;;;;13.00;93.73;99842.63;10434777;22;19923;-79
2022/06/28 00:21:11;;;;;;;;;;;;;;;12.92;94.65;99841.78;10434229;22;19934;-79
2022/06/28 00:25:13;;;;;;;;;;;;;;;12.88;94.20;99834.88;10434400;22;19922;-78
2022/06/28 00:29:15;;;;;;;;;;;;;;;12.91;94.44;99837.47;10433874;22;19930;-79
2022/06/28 00:33:17;;;;;;;;;;;;;;;12.84;93.63;99830.56;10432324;22;19934;-79
2022/06/28 00:37:18;;;;;;;;;;;;;;;12.77;94.26;99825.44;10433786;22;19966;-78
2022/06/28 00:41:20;;;;;;;;;;;;;;;12.76;94.01;99821.09;10432536;22;19919;-79
2022/06/28 00:45:22;;;;;;;;;;;;;;;12.70;94.18;99827.19;10432671;22;19954;-79
2022/06/28 00:49:24;;;;;;;;;;;;;;;12.60;93.68;99823.78;10432363;22;19922;-78
2022/06/28 00:53:26;;;;;;;;;;;;;;;12.55;93.81;99822.06;10406655;22;19934;-78
2022/06/28 00:57:27;;;;;;;;;;;;;;;12.54;94.62;99830.75;10434037;22;19923;-78
2022/06/28 01:01:29;;;;;;;;;;;;;;;12.53;93.96;99829.88;10432929;22;20190;-79
2022/06/28 01:05:32;;;;;;;;;;;;;;;12.51;93.91;99828.16;10432657;22;20513;-79
2022/06/28 01:09:33;;;;;;;;;;;;;;;12.48;94.16;99825.56;10432603;22;19929;-79
2022/06/28 01:13:34;;;;;;;;;;;;;;;12.46;93.92;99829.94;10433263;22;19923;-78
2022/06/28 01:17:36;;;;;;;;;;;;;;;12.42;93.91;99818.66;10434343;22;20236;-78
2022/06/28 01:21:38;;;;;;;;;;;;;;;12.36;93.82;99811.72;10432340;22;20257;-78
2022/06/28 01:25:40;;;;;;;;;;;;;;;12.29;94.46;99812.66;10407294;22;19933;-78
2022/06/28 01:29:42;;;;;;;;;;;;;;;12.26;94.80;99810.06;10432328;22;20012;-79
2022/06/28 01:33:43;;;;;;;;;;;;;;;12.27;94.33;99818.75;10404692;22;20293;-78
2022/06/28 01:37:46;;;;;;;;;;;;;;;12.23;94.40;99817.03;10407219;22;19969;-78
2022/06/28 01:41:49;;;;;;;;;;;;;;;12.14;93.87;99822.25;10433753;22;19966;-78
2022/06/28 01:45:51;;;;;;;;;;;;;;;12.05;94.69;99823.16;10430603;22;19923;-78
2022/06/28 01:49:53;;;;;;;;;;;;;;;12.11;95.08;99815.31;10431145;22;19923;-78
2022/06/28 01:53:55;;;;;;;;;;;;;;;12.15;95.85;99818.78;10405319;22;20324;-78
2022/06/28 01:57:56;;;;;;;;;;;;;;;12.16;95.11;99812.69;10431583;22;19951;-78
2022/06/28 02:01:58;;;;;;;;;;;;;;;12.10;94.64;99829.22;10407119;22;19954;-78
2022/06/28 02:05:59;;;;;;;;;;;;;;;12.03;94.61;99822.31;10437112;22;19957;-78
2022/06/28 02:10:01;;;;;;;;;;;;;;;12.01;94.45;99822.28;10435880;22;19919;-78
2022/06/28 02:14:02;;;;;;;;;;;;;;;11.97;94.63;99825.78;10437744;22;20173;-78
2022/06/28 02:18:04;;;;;;;;;;;;;;;11.92;94.78;99830.13;10436213;22;19919;-78
2022/06/28 02:22:05;;;;;;;;;;;;;;;11.86;94.54;99831.91;10437121;22;19934;-78
2022/06/28 02:26:11;;;;;;;;;;;;;;;11.72;94.25;99824.09;10437015;22;20284;-78
2022/06/28 02:30:13;;;;;;;;;;;;;;;11.66;94.32;99826.69;10436701;22;19923;-78
2022/06/28 02:40:21;;;;;;;;;;;;;;;11.65;94.73;99831.03;10436924;22;20178;-78
2022/06/28 02:42:57;;;;;;;;;;;;;;;11.58;94.97;99838.84;10437528;22;19923;-78
2022/06/28 02:46:58;;;;;;;;;;;;;;;11.48;95.43;99835.38;10410117;22;19922;-78
2022/06/28 02:51:00;;;;;;;;;;;;;;;11.48;95.80;99830.19;10436614;22;19961;-78
2022/06/28 02:55:02;;;;;;;;;;;;;;;11.58;96.26;99838.84;10437535;22;19923;-78
2022/06/28 02:59:03;;;;;;;;;;;;;;;11.54;95.64;99852.72;10436244;22;19923;-78
2022/06/28 03:03:05;;;;;;;;;;;;;;;11.51;95.41;99851.00;10433941;22;19923;-78
2022/06/28 03:07:06;;;;;;;;;;;;;;;11.50;95.11;99862.28;10433423;22;20047;-78
2022/06/28 03:11:08;;;;;;;;;;;;;;;11.46;95.02;99864.00;10434307;22;19958;-78
2022/06/28 03:15:11;;;;;;;;;;;;;;;11.41;94.60;99862.25;10433777;22;20289;-77
2022/06/28 03:19:12;;;;;;;;;;;;;;;11.36;94.60;99867.47;10408798;22;19977;-77
2022/06/28 03:23:14;;;;;;;;;;;;;;;11.35;95.03;99877.88;10435115;22;19937;-78
2022/06/28 03:27:15;;;;;;;;;;;;;;;11.30;94.99;99872.66;10433948;22;19961;-77
2022/06/28 03:31:19;;;;;;;;;;;;;;;11.26;94.33;99883.06;10432494;22;19970;-80
2022/06/28 03:35:27;;;;;;;;;;;;;;;11.18;94.67;99881.31;10439592;22;19938;-80
2022/06/28 03:39:35;;;;;;;;;;;;;;;11.14;95.14;99882.19;10437837;22;19919;-80
2022/06/28 03:43:39;;;;;;;;;;;;;;;11.22;95.10;99886.53;10435833;22;19949;-80
2022/06/28 03:47:42;;;;;;;;;;;;;;;11.23;94.92;99891.72;10437447;22;20449;-80
2022/06/28 03:51:46;;;;;;;;;;;;;;;11.28;94.73;99889.97;10435069;22;20447;-79
2022/06/28 03:55:48;;;;;;;;;;;;;;;11.31;94.87;99899.50;10436473;22;19947;-80
2022/06/28 03:59:59;;;;;;;;;;;;;;;11.32;95.15;99896.06;10434495;22;19918;-80
2022/06/28 04:04:01;;;;;;;;;;;;;;;11.36;95.55;99888.28;10443719;22;20240;-80
2022/06/28 04:08:08;;;;;;;;;;;;;;;11.46;95.41;99895.19;10437150;22;19922;-80
2022/06/28 04:12:16;;;;;;;;;;;;;;;11.54;95.83;99897.81;10438054;22;20501;-80
2022/06/28 04:16:21;;;;;;;;;;;;;;;11.63;95.18;99908.19;10435359;22;19923;-80
2022/06/28 04:20:42;;;;;;;;;;;;;;;11.70;95.00;99904.75;10427941;22;20224;-80
2022/06/28 04:25:01;;;;;;;;;;;;;;;11.75;95.60;99907.34;10442176;22;19976;-80
2022/06/28 04:29:06;;;;;;;;;;;;;;;11.64;94.95;99907.31;10438274;22;19961;-80
2022/06/28 04:33:20;;;;;;;;;;;;;;;11.74;95.30;99901.25;10435699;22;19923;-80
2022/06/28 04:37:23;;;;;;;;;;;;;;;11.90;95.09;99903.88;10437186;22;19919;-80
2022/06/28 04:41:40;;;;;;;;;;;;;;;12.08;95.26;99904.72;10434771;22;20006;-80
2022/06/28 04:56:51;;;;;;;;;;;;;;;12.77;94.80;99895.78;10374751;22;19931;-81
2022/06/28 05:01:11;;;;;;;;;;;;;;;12.88;94.56;99905.25;10348727;22;19927;-81
2022/06/28 05:05:31;;;;;;;;;;;;;;;13.14;95.16;99902.50;10340655;23;19927;-82
2022/06/28 05:09:41;;;;;;;;;;;;;;;13.36;94.47;99905.00;10354499;22;20576;-81
2022/06/28 05:14:06;;;;;;;;;;;;;;;13.57;94.14;99907.44;10298250;23;20206;-81
2022/06/28 05:18:15;;;;;;;;;;;;;;;13.73;93.25;99900.34;10347191;23;20564;-82
2022/06/28 05:22:25;;;;;;;;;;;;;;;13.87;92.93;99896.72;10350742;22;19920;-79
2022/06/28 05:26:26;;;;;;;;;;;;;;;14.07;92.34;99896.50;10348135;23;19939;-82
2022/06/28 05:30:28;;;;;;;;;;;;;;;14.36;91.88;99897.94;10347092;23;20010;-80
2022/06/28 05:34:30;;;;;;;;;;;;;;;14.76;90.84;99895.75;10349129;23;19924;-81
2022/06/28 05:38:31;;;;;;;;;;;;;;;15.13;88.67;99896.09;10348794;23;19934;-82
2022/06/28 05:42:33;;;;;;;;;;;;;;;15.18;88.14;99896.88;10346454;23;19924;-82
2022/06/28 05:46:34;;;;;;;;;;;;;;;15.26;88.64;99897.63;10347733;23;19923;-82
2022/06/28 05:50:36;;;;;;;;;;;;;;;15.53;88.41;99901.56;10348966;23;19926;-82
2022/06/28 05:54:37;;;;;;;;;;;;;;;16.22;86.46;99896.00;10320818;22;20279;-82
2022/06/28 05:58:39;;;;;;;;;;;;;;;17.07;84.01;99898.63;10338817;23;19923;-82
2022/06/28 06:02:48;;;;;;;;;;;;;;;17.84;80.82;99900.28;10338622;23;19935;-82
2022/06/28 06:07:03;;;;;;;;;;;;;;;18.42;77.30;99898.69;10334315;22;19986;-80
2022/06/28 06:11:31;;;;;;;;;;;;;;;18.48;75.78;99892.38;10340297;22;19931;-82
2022/06/28 06:15:38;;;;;;;;;;;;;;;19.08;74.15;99891.53;10342437;23;20244;-82
2022/06/28 06:19:39;;;;;;;;;;;;;;;19.82;71.83;99888.25;10338412;23;19962;-82
2022/06/28 06:23:46;;;;;;;;;;;;;;;20.45;68.31;99890.38;10340621;23;19919;-83
2022/06/28 06:27:57;;;;;;;;;;;;;;;21.09;66.49;99890.59;10331710;22;19923;-83
2022/06/28 06:32:28;;;;;;;;;;;;;;;21.59;63.76;99877.13;10327406;22;19995;-82
2022/06/28 06:37:03;;;;;;;;;;;;;;;22.05;61.17;99887.56;10339697;22;19924;-82
2022/06/28 06:41:41;;;;;;;;;;;;;;;22.30;60.36;99883.78;10338336;22;19931;-82
2022/06/28 06:45:42;;;;;;;;;;;;;;;22.21;59.58;99881.53;10308797;23;20584;-81
2022/06/28 06:49:44;;;;;;;;;;;;;;;21.74;60.70;99870.34;10333715;23;19948;-81
2022/06/28 06:53:45;;;;;;;;;;;;;;;22.08;60.68;99863.63;10334915;23;19924;-81
2022/06/28 06:57:47;;;;;;;;;;;;;;;22.34;59.61;99857.19;10335097;23;19919;-81
2022/06/28 07:01:49;;;;;;;;;;;;;;;22.72;58.53;99855.41;10334842;23;19924;-78
2022/06/28 07:05:53;;;;;;;;;;;;;;;22.96;56.76;99856.06;10333133;23;19923;-81
2022/06/28 07:09:58;;;;;;;;;;;;;;;23.12;55.39;99849.97;10338054;22;19923;-81
2022/06/28 07:14:02;;;;;;;;;;;;;;;23.25;54.86;99860.84;10336902;23;19951;-81
2022/06/28 07:18:04;;;;;;;;;;;;;;;23.32;54.98;99864.88;10311551;23;19923;-82
2022/06/28 07:22:05;;;;;;;;;;;;;;;23.35;54.02;99867.41;10335495;23;19934;-82
2022/06/28 07:26:07;;;;;;;;;;;;;;;23.42;54.57;99860.00;10335741;23;19919;-82
2022/06/28 07:30:09;;;;;;;;;;;;;;;23.54;52.93;99845.28;10310289;23;19924;-81
2022/06/28 07:34:10;;;;;;;;;;;;;;;23.55;53.30;99855.81;10335360;22;19920;-79
2022/06/28 07:38:12;;;;;;;;;;;;;;;23.77;52.76;99853.81;10308990;23;20291;-81
2022/06/28 07:42:14;;;;;;;;;;;;;;;24.08;52.02;99841.63;10334472;23;20362;-81
2022/06/28 07:46:16;;;;;;;;;;;;;;;24.04;51.00;99832.09;10334634;23;20545;-81
2022/06/28 07:54:52;;;;;;;;;;;;;;;24.28;48.81;99832.59;10332937;22;19943;-82
2022/06/28 07:59:02;;;;;;;;;;;;;;;24.36;47.59;99833.91;10335137;22;20436;-81
2022/06/28 08:03:12;;;;;;;;;;;;;;;24.51;46.69;99823.41;10331490;22;19924;-81
2022/06/28 08:07:29;;;;;;;;;;;;;;;24.69;45.45;99817.09;10330456;22;20011;-81
2022/06/28 08:12:08;;;;;;;;;;;;;;;24.87;46.09;99810.75;10305641;23;19924;-81
2022/06/28 08:16:43;;;;;;;;;;;;;;;25.02;44.28;99814.38;10332718;22;19920;-82
2022/06/28 08:20:52;;;;;;;;;;;;;;;25.08;43.21;99811.34;10334595;23;19927;-81
2022/06/28 08:25:04;;;;;;;;;;;;;;;25.15;42.62;99806.56;10310390;23;20304;-81
2022/06/28 08:29:23;;;;;;;;;;;;;;;25.30;41.94;99805.66;10307217;23;20005;-81
2022/06/28 08:33:57;;;;;;;;;;;;;;;25.29;41.62;99793.31;10347769;22;19919;-81
2022/06/28 08:38:49;;;;;;;;;;;;;;;25.47;42.44;99794.88;10351472;22;20302;-82
2022/06/28 09:02:09;;;;;;;;;;;;;;;25.78;39.66;99777.97;10447607;22;19930;-82
2022/06/28 09:06:40;;;;;;;;;;;;;;;25.77;39.10;99770.94;10347594;23;19951;-82
2022/06/28 09:11:01;;;;;;;;;;;;;;;25.69;38.04;99762.59;10351592;22;19928;-82
2022/06/28 09:15:23;;;;;;;;;;;;;;;25.77;39.08;99759.44;10345748;23;19927;-82
2022/06/28 09:30:40;;;;;;;;;;;;;;;26.04;38.93;99751.59;10451563;22;19934;-80
2022/06/28 09:35:17;;;;;;;;;;;;;;;26.01;37.52;99733.97;10344169;22;19923;-80
2022/06/28 09:39:55;;;;;;;;;;;;;;;26.07;38.07;99730.94;10340283;22;19991;-80
2022/06/28 09:44:04;;;;;;;;;;;;;;;26.12;38.98;99718.19;10351334;22;19920;-80
2022/06/28 09:48:45;;;;;;;;;;;;;;;26.12;38.13;99718.19;10346266;22;20282;-80
2022/06/28 09:53:15;;;;;;;;;;;;;;;26.19;39.03;99702.69;10309547;23;20593;-79
2022/06/28 09:57:30;;;;;;;;;;;;;;;26.03;37.57;99691.28;10345699;23;19972;-80
2022/06/28 10:01:40;;;;;;;;;;;;;;;26.26;40.45;99701.34;10318650;22;19932;-80
2022/06/28 10:06:02;;;;;;;;;;;;;;;26.22;39.45;99697.19;10348297;22;20190;-80
2022/06/28 10:10:20;;;;;;;;;;;;;;;26.26;38.40;99696.03;10343338;22;20167;-78
2022/06/28 10:18:52;;;;;;;;;;;;;;;26.43;37.96;99693.16;10340783;23;19923;-78
2022/06/28 10:23:17;;;;;;;;;;;;;;;26.54;37.63;99692.44;10338718;23;19924;-80
2022/06/28 10:27:19;;;;;;;;;;;;;;;26.53;37.21;99680.09;10340042;22;20299;-79
2022/06/28 10:31:23;;;;;;;;;;;;;;;26.68;37.60;99679.09;10325246;23;20114;-79
2022/06/28 10:35:51;;;;;;;;;;;;;;;26.69;36.59;99674.59;10324346;23;20089;-79
2022/06/28 10:40:12;;;;;;;;;;;;;;;26.81;37.54;99668.47;10299467;23;19935;-79
2022/06/28 10:44:15;;;;;;;;;;;;;;;26.85;36.43;99659.31;10323100;23;19923;-79
2022/06/28 10:48:17;;;;;;;;;;;;;;;26.97;36.74;99647.84;10325090;22;19923;-80
2022/06/28 10:52:22;;;;;;;;;;;;;;;27.00;36.61;99641.47;10328364;23;20604;-79
2022/06/28 10:56:24;;;;;;;;;;;;;;;27.00;36.89;99638.81;10301407;23;19924;-79
2022/06/28 11:00:32;;;;;;;;;;;;;;;26.95;36.42;99630.25;10327209;23;19923;-80
2022/06/28 11:04:34;;;;;;;;;;;;;;;26.97;37.63;99629.16;10326806;23;19924;-79
2022/06/28 11:08:44;;;;;;;;;;;;;;;27.17;38.00;99616.31;10304727;23;20011;-80
2022/06/28 11:12:45;;;;;;;;;;;;;;;27.06;37.17;99625.91;10330227;23;19972;-79
2022/06/28 11:16:47;;;;;;;;;;;;;;;27.06;37.54;99620.56;10329303;23;19924;-79
2022/06/28 11:20:49;;;;;;;;;;;;;;;27.13;37.22;99622.81;10328712;22;19935;-80
2022/06/28 11:24:55;;;;;;;;;;;;;;;27.28;36.73;99601.25;10329294;23;19923;-79
2022/06/28 11:28:59;;;;;;;;;;;;;;;27.38;36.79;99598.81;10324561;23;19923;-80
2022/06/28 11:33:00;;;;;;;;;;;;;;;27.62;36.64;99585.53;10298656;23;19923;-78
2022/06/28 11:37:02;;;;;;;;;;;;;;;27.60;35.48;99590.13;10298087;23;19934;-79
2022/06/28 11:41:03;;;;;;;;;;;;;;;27.50;33.77;99581.94;10323825;23;19934;-79
2022/06/28 11:45:05;;;;;;;;;;;;;;;27.67;36.62;99568.28;10323024;23;19923;-79
2022/06/28 11:49:06;;;;;;;;;;;;;;;27.84;35.80;99558.22;10323951;22;19925;-79
2022/06/28 11:53:08;;;;;;;;;;;;;;;27.82;34.98;99555.63;10324714;23;19978;-79
2022/06/28 11:57:14;;;;;;;;;;;;;;;27.79;33.42;99541.66;10324230;23;19930;-79
2022/06/28 12:01:21;;;;;;;;;;;;;;;27.79;34.22;99544.31;10323067;23;19974;-79
2022/06/28 12:05:33;;;;;;;;;;;;;;;27.66;33.00;99531.03;10321461;23;19924;-80
2022/06/28 12:09:43;;;;;;;;;;;;;;;27.79;34.31;99529.16;10322552;23;19924;-79
2022/06/28 12:13:44;;;;;;;;;;;;;;;27.45;33.22;99527.19;10321411;23;19924;-79
2022/06/28 12:17:48;;;;;;;;;;;;;;;27.68;36.00;99523.78;10321675;23;19923;-78
2022/06/28 12:22:09;;;;;;;;;;;;;;;28.04;35.46;99527.38;10321832;23;19931;-78
2022/06/28 12:26:11;;;;;;;;;;;;;;;28.11;34.02;99504.59;10296263;23;20241;-78
2022/06/28 12:30:12;;;;;;;;;;;;;;;28.10;34.75;99495.72;10323511;23;19950;-78
2022/06/28 12:34:15;;;;;;;;;;;;;;;28.06;33.62;99498.75;10324798;23;20334;-79
2022/06/28 12:38:16;;;;;;;;;;;;;;;28.21;34.94;99502.94;10326520;23;19934;-78
2022/06/28 12:42:18;;;;;;;;;;;;;;;28.42;34.13;99511.16;10327766;23;19924;-78
2022/06/28 12:46:24;;;;;;;;;;;;;;;28.44;33.83;99515.44;10327289;22;19924;-78
2022/06/28 12:50:25;;;;;;;;;;;;;;;28.37;33.99;99508.84;10327293;22;19927;-79
2022/06/28 12:54:37;;;;;;;;;;;;;;;27.90;35.17;99505.22;10334522;23;20297;-81
2022/06/28 12:58:58;;;;;;;;;;;;;;;28.01;35.40;99485.75;10345789;23;19923;-82
2022/06/28 13:03:33;;;;;;;;;;;;;;;28.15;35.28;99488.22;10323799;22;19959;-81
2022/06/28 13:07:51;;;;;;;;;;;;;;;28.29;32.55;99476.53;10324120;23;19919;-80
2022/06/28 13:11:57;;;;;;;;;;;;;;;28.36;33.28;99475.06;10338946;23;19923;-80
2022/06/28 13:16:26;;;;;;;;;;;;;;;28.35;33.40;99464.50;10341502;23;19950;-81
2022/06/28 13:21:21;;;;;;;;;;;;;;;28.31;32.75;99455.88;10368194;23;19938;-81
2022/06/28 13:25:51;;;;;;;;;;;;;;;28.43;34.33;99441.59;10313004;23;20610;-81
2022/06/28 13:35:17;;;;;;;;;;;;;;;28.55;32.79;99421.09;10248930;23;19948;-81
2022/06/28 13:39:49;;;;;;;;;;;;;;;28.65;33.69;99435.41;10246423;23;19920;-80
2022/06/28 13:44:45;;;;;;;;;;;;;;;28.75;32.50;99430.22;8574014;27;19930;-81
2022/06/28 13:53:41;;;;;;;;;;;;;;;28.80;32.67;99417.34;8471601;22;20024;-80
2022/06/28 13:57:47;;;;;;;;;;;;;;;28.88;33.50;99431.81;8379667;28;20903;-80
2022/06/28 14:02:04;;;;;;;;;;;;;;;28.95;30.65;99423.31;8418700;28;20421;-82
2022/06/28 14:06:46;;;;;;;;;;;;;;;29.07;32.15;99425.84;8428007;28;19986;-82
2022/06/28 14:11:25;;;;;;;;;;;;;;;28.93;31.49;99406.56;8438753;28;19935;-82
2022/06/28 14:16:13;;;;;;;;;;;;;;;28.72;31.89;99404.56;8295283;28;20089;-82
2022/06/28 14:21:21;;;;;;;;;;;;;;;28.68;31.63;99408.44;8267083;28;19937;-82
2022/06/28 14:26:21;;;;;;;;;;;;;;;28.84;32.71;99408.94;8260069;28;19926;-82
2022/06/28 14:30:54;;;;;;;;;;;;;;;28.80;31.39;99393.28;8226760;28;19986;-82
2022/06/28 14:35:29;;;;;;;;;;;;;;;28.58;32.79;99396.81;8272704;28;20401;-81
2022/06/28 14:40:05;;;;;;;;;;;;;;;28.15;33.42;99394.75;8255368;28;19941;-81
2022/06/28 14:44:33;;;;;;;;;;;;;;;27.94;33.19;99391.06;8233955;28;19940;-82
2022/06/28 14:49:19;;;;;;;;;;;;;;;27.79;33.04;99386.88;8240368;28;19974;-82
2022/06/28 14:54:06;;;;;;;;;;;;;;;28.28;34.18;99378.66;8219080;28;19936;-82
2022/06/28 14:58:38;;;;;;;;;;;;;;;28.25;32.79;99376.22;8207326;29;19938;-83
2022/06/28 15:03:16;;;;;;;;;;;;;;;28.34;33.15;99375.50;8197657;29;19934;-82
2022/06/28 15:07:49;;;;;;;;;;;;;;;28.09;32.98;99373.88;8198697;28;19972;-81
2022/06/28 15:12:26;;;;;;;;;;;;;;;27.95;33.32;99366.06;8269406;28;20401;-81
2022/06/28 15:16:57;;;;;;;;;;;;;;;27.95;32.83;99358.91;8326877;28;19936;-82
2022/06/28 15:21:04;;;;;;;;;;;;;;;28.28;34.39;99363.50;8327481;28;20345;-82
2022/06/28 15:34:16;;;;;;;;;;;;;;;28.36;33.18;99349.53;8325572;28;20558;-78
2022/06/28 15:38:17;;;;;;;;;;;;;;;28.21;31.83;99343.56;8323338;28;19936;-77
2022/06/28 15:42:23;;;;;;;;;;;;;;;27.93;33.31;99333.31;8324726;28;19936;-77
2022/06/28 15:46:25;;;;;;;;;;;;;;;27.55;34.48;99333.53;8304762;28;19997;-77
2022/06/28 15:50:27;;;;;;;;;;;;;;;27.31;34.86;99331.72;8260953;28;19930;-78
2022/06/28 15:54:28;;;;;;;;;;;;;;;27.08;35.50;99327.22;8280308;28;20486;-77
2022/06/28 15:58:30;;;;;;;;;;;;;;;26.90;35.71;99325.88;8273353;28;19929;-77
2022/06/28 16:02:31;;;;;;;;;;;;;;;26.71;35.25;99321.88;8307798;28;19941;-77
2022/06/28 16:06:33;;;;;;;;;;;;;;;26.65;35.83;99324.13;8294980;28;20132;-77
2022/06/28 16:10:35;;;;;;;;;;;;;;;26.56;36.73;99316.78;8255751;28;20021;-77
2022/06/28 16:14:36;;;;;;;;;;;;;;;26.47;36.61;99313.84;8295506;28;20020;-77
2022/06/28 16:18:38;;;;;;;;;;;;;;;26.38;37.00;99314.47;8266391;28;19930;-77
2022/06/28 16:22:40;;;;;;;;;;;;;;;26.32;37.14;99306.88;8287504;28;19972;-77
2022/06/28 16:26:42;;;;;;;;;;;;;;;26.25;36.99;99310.09;8289178;28;19937;-77
2022/06/28 16:30:44;;;;;;;;;;;;;;;26.25;37.63;99307.44;8275859;28;19929;-77
2022/06/28 16:34:45;;;;;;;;;;;;;;;26.30;37.64;99292.84;8299407;28;19929;-77
2022/06/28 16:38:47;;;;;;;;;;;;;;;26.30;38.03;99289.31;8300537;28;20044;-77
2022/06/28 16:42:49;;;;;;;;;;;;;;;26.24;37.45;99298.59;8308677;28;20043;-78
2022/06/28 16:46:50;;;;;;;;;;;;;;;26.04;36.49;99278.72;8328565;28;19961;-78
2022/06/28 16:50:52;;;;;;;;;;;;;;;25.88;36.29;99286.06;8301903;28;19933;-77
2022/06/28 16:54:53;;;;;;;;;;;;;;;25.75;36.24;99278.06;8327174;28;19929;-78
2022/06/28 16:58:55;;;;;;;;;;;;;;;25.68;37.96;99274.13;8316626;28;19982;-78
2022/06/28 17:02:56;;;;;;;;;;;;;;;25.65;38.51;99273.41;8333602;28;20369;-77
2022/06/28 17:11:18;;;;;;;;;;;;;;;25.55;38.73;99274.06;8317999;28;19940;-78
2022/06/28 17:15:20;;;;;;;;;;;;;;;25.50;39.10;99268.22;8317180;28;20044;-77
2022/06/28 17:19:21;;;;;;;;;;;;;;;25.42;39.92;99275.00;8295587;28;20421;-78
2022/06/28 17:23:23;;;;;;;;;;;;;;;25.36;40.26;99272.75;8313858;28;19929;-77
2022/06/28 17:27:24;;;;;;;;;;;;;;;25.25;40.36;99269.00;8266454;28;19937;-77
2022/06/28 17:31:26;;;;;;;;;;;;;;;25.17;40.86;99268.66;8295659;28;19961;-77
2022/06/28 17:35:27;;;;;;;;;;;;;;;25.07;43.17;99277.31;8284725;28;19929;-77
2022/06/28 17:39:29;;;;;;;;;;;;;;;25.00;42.04;99276.88;8311330;28;19934;-78
2022/06/28 17:43:30;;;;;;;;;;;;;;;24.93;43.00;99273.72;8294054;28;19940;-77
2022/06/28 17:47:31;;;;;;;;;;;;;;;24.86;42.91;99272.44;8312039;28;19933;-78
2022/06/28 17:51:33;;;;;;;;;;;;;;;24.76;43.95;99266.00;8294424;28;20362;-77
2022/06/28 17:55:35;;;;;;;;;;;;;;;24.66;44.41;99265.75;8299996;28;19940;-77
2022/06/28 17:59:38;;;;;;;;;;;;;;;24.57;43.49;99263.69;8318247;28;19929;-78
2022/06/28 18:03:39;;;;;;;;;;;;;;;24.52;43.33;99264.94;8292671;28;19933;-78
2022/06/28 18:07:41;;;;;;;;;;;;;;;24.43;45.93;99270.84;8286157;28;19929;-77
2022/06/28 18:11:43;;;;;;;;;;;;;;;24.38;45.63;99274.59;8297917;28;19929;-77
2022/06/28 18:15:44;;;;;;;;;;;;;;;24.32;45.69;99268.84;8317122;28;19929;-77
2022/06/28 18:19:47;;;;;;;;;;;;;;;24.27;46.05;99258.50;8278240;28;19929;-77
2022/06/28 18:23:48;;;;;;;;;;;;;;;24.19;48.91;99262.56;8289352;28;19929;-77
2022/06/28 18:27:49;;;;;;;;;;;;;;;24.02;50.23;99263.59;8279390;28;19933;-77
2022/06/28 18:31:52;;;;;;;;;;;;;;;23.88;49.62;99267.13;8304610;28;19929;-77
2022/06/28 18:35:54;;;;;;;;;;;;;;;23.84;49.53;99257.63;8276027;28;20449;-77
2022/06/28 18:39:55;;;;;;;;;;;;;;;23.78;49.22;99261.50;8292113;28;19940;-77
2022/06/28 18:43:57;;;;;;;;;;;;;;;23.67;50.33;99263.09;8299337;28;19929;-77
2022/06/28 18:47:58;;;;;;;;;;;;;;;23.51;50.49;99252.50;8272346;28;20174;-77
2022/06/28 18:52:00;;;;;;;;;;;;;;;23.38;52.21;99259.50;8286579;28;19933;-77
2022/06/28 18:56:01;;;;;;;;;;;;;;;23.29;52.28;99260.03;8313873;28;19940;-77
2022/06/28 19:00:03;;;;;;;;;;;;;;;23.11;53.96;99254.84;8266773;28;20032;-77
2022/06/28 19:04:05;;;;;;;;;;;;;;;22.87;55.09;99253.63;8291044;28;19999;-78
2022/06/28 19:08:07;;;;;;;;;;;;;;;22.64;55.45;99254.91;8285222;28;20315;-77
2022/06/28 19:12:08;;;;;;;;;;;;;;;22.53;56.27;99252.00;8298844;28;19952;-78
2022/06/28 19:16:10;;;;;;;;;;;;;;;22.34;57.67;99254.78;8293091;28;19944;-77
2022/06/28 19:20:12;;;;;;;;;;;;;;;22.29;56.97;99262.13;8293132;28;19941;-77
2022/06/28 19:24:14;;;;;;;;;;;;;;;22.23;57.41;99249.22;8293822;28;19929;-77
2022/06/28 19:28:16;;;;;;;;;;;;;;;22.12;58.69;99249.81;8290208;28;19953;-77
2022/06/28 19:32:18;;;;;;;;;;;;;;;22.08;57.51;99242.09;8292515;28;20417;-77
2022/06/28 19:36:19;;;;;;;;;;;;;;;21.96;59.04;99240.97;8322435;28;19987;-77
2022/06/28 19:40:21;;;;;;;;;;;;;;;21.79;59.55;99238.34;8283903;28;19936;-77
2022/06/28 19:44:22;;;;;;;;;;;;;;;21.64;59.87;99243.50;8299575;28;20499;-76
2022/06/28 19:48:24;;;;;;;;;;;;;;;21.46;60.34;99247.09;8305138;28;19960;-76
2022/06/28 19:52:26;;;;;;;;;;;;;;;21.32;60.68;99242.50;8284387;28;19940;-76
2022/06/28 19:56:27;;;;;;;;;;;;;;;21.21;59.84;99251.88;8280147;28;20020;-77
2022/06/28 20:00:29;;;;;;;;;;;;;;;21.10;59.92;99247.13;8290588;28;19930;-76
2022/06/28 20:04:31;;;;;;;;;;;;;;;21.02;60.28;99258.09;8286870;28;20329;-77
2022/06/28 20:08:33;;;;;;;;;;;;;;;20.97;62.75;99262.72;8308122;28;19939;-76
2022/06/28 20:12:34;;;;;;;;;;;;;;;20.90;64.65;99271.00;8282646;28;19957;-76
2022/06/28 20:16:35;;;;;;;;;;;;;;;20.75;64.30;99262.91;8270850;28;19941;-76
2022/06/28 20:20:37;;;;;;;;;;;;;;;20.75;59.25;99264.69;8284360;28;19933;-76
2022/06/28 20:24:39;;;;;;;;;;;;;;;20.72;64.56;99265.69;8284755;28;20332;-76
2022/06/28 20:28:40;;;;;;;;;;;;;;;20.76;60.64;99271.66;8286239;28;20020;-76
2022/06/28 20:32:42;;;;;;;;;;;;;;;20.74;58.80;99269.09;8283347;28;19952;-77
2022/06/28 20:36:43;;;;;;;;;;;;;;;20.74;59.51;99271.75;8305013;28;19929;-77
2022/06/28 20:42:11;;;;;;;;;;;;;;;20.62;62.44;99267.03;8268317;28;19960;-77
2022/06/28 20:45:07;;;;;;;;;;;;;;;20.41;62.43;99268.91;8281061;28;20434;-76
2022/06/28 20:49:09;;;;;;;;;;;;;;;20.22;61.90;99258.31;8283747;28;19929;-76
2022/06/28 20:53:10;;;;;;;;;;;;;;;20.06;62.48;99254.66;8284531;28;20319;-76
2022/06/28 20:57:11;;;;;;;;;;;;;;;19.95;63.96;99264.00;8284923;28;20040;-77
2022/06/28 21:01:13;;;;;;;;;;;;;;;19.82;63.24;99261.91;8283065;28;19930;-76
2022/06/28 21:05:14;;;;;;;;;;;;;;;19.75;61.98;99252.56;8293677;28;20324;-76
2022/06/28 21:09:16;;;;;;;;;;;;;;;19.58;62.66;99252.44;8271657;28;19952;-75
2022/06/28 21:13:19;;;;;;;;;;;;;;;19.40;62.79;99255.84;8269765;28;19988;-76
2022/06/28 21:17:20;;;;;;;;;;;;;;;19.31;64.05;99249.16;8285809;28;20457;-78
2022/06/28 21:21:22;;;;;;;;;;;;;;;19.22;63.25;99249.56;8312707;28;19930;-78
2022/06/28 21:25:23;;;;;;;;;;;;;;;19.17;64.08;99244.47;8261189;28;19930;-78
2022/06/28 21:29:25;;;;;;;;;;;;;;;19.13;63.79;99242.03;8261986;28;19925;-78
2022/06/28 21:33:27;;;;;;;;;;;;;;;19.12;64.16;99238.56;8296732;28;19933;-78
2022/06/28 21:37:28;;;;;;;;;;;;;;;19.07;65.18;99240.53;8275322;28;19939;-78
2022/06/28 21:41:30;;;;;;;;;;;;;;;19.06;67.62;99237.97;8262348;28;19965;-78
2022/06/28 21:45:32;;;;;;;;;;;;;;;19.07;67.46;99240.53;8279949;28;20383;-78
2022/06/28 21:49:34;;;;;;;;;;;;;;;19.06;67.03;99230.06;8258577;28;20241;-78
2022/06/28 21:53:36;;;;;;;;;;;;;;;19.06;66.22;99228.28;8274612;28;19925;-78
2022/06/28 21:57:37;;;;;;;;;;;;;;;19.05;66.31;99237.13;8302007;28;19930;-78
2022/06/28 22:01:41;;;;;;;;;;;;;;;19.06;65.76;99233.56;8287208;28;20020;-78
2022/06/28 22:05:45;;;;;;;;;;;;;;;19.07;65.57;99229.16;8301665;28;19929;-78
2022/06/28 22:09:46;;;;;;;;;;;;;;;19.02;65.22;99231.94;8281368;28;19980;-78
2022/06/28 22:13:48;;;;;;;;;;;;;;;19.01;65.99;99230.25;8297899;28;19926;-78
2022/06/28 22:17:50;;;;;;;;;;;;;;;18.96;67.92;99238.34;8292789;28;19933;-78
2022/06/28 22:21:52;;;;;;;;;;;;;;;18.95;68.95;99234.00;8299772;28;20330;-78
2022/06/28 22:25:54;;;;;;;;;;;;;;;18.92;66.80;99228.00;8306164;28;19930;-78
2022/06/28 22:29:56;;;;;;;;;;;;;;;18.87;67.04;99227.34;8300910;28;19940;-78
2022/06/28 22:33:58;;;;;;;;;;;;;;;18.90;67.67;99222.81;8323160;28;19933;-78
2022/06/28 22:37:59;;;;;;;;;;;;;;;18.90;67.17;99219.31;8317696;28;19961;-78